Alpedrete, Spain
Current Conditions -  °F | °C
As of 10:00 AM on Thursday 23 Oct 2014 (Local Time) from LECV Reporting Station
Clear Clear  
Wind Chill: 64°   Ceiling: Unl
Heat Index: 64°   Visibility: 6mi
Dew Point: 16°   Wind: 3mph
Humidity: 15%   Direction: NA
Pressure: 30.33"   Gusts: NA
Location:  40.66°N, 4.03°W
Report Text: LECV 230800Z VRB03KT CAVOK 18/M09 Q1027
Loading
Personal Weather Stations






























Interactive Weather Map
Tropical Storm Tracking
New forecast layout! Learn more

10-Day Weather Forecast

Advertisements
Track Severe Weather on mobile